createdAt,value
2022-10-06T00:02:38.844Z,8.68
2022-10-06T00:05:41.785Z,9.55
2022-10-06T00:08:47.004Z,8.30
2022-10-06T00:11:49.485Z,9.07
2022-10-06T00:14:51.694Z,9.45
2022-10-06T00:17:54.998Z,8.50
2022-10-06T00:20:59.211Z,9.02
2022-10-06T00:24:04.157Z,8.38
2022-10-06T00:27:09.335Z,8.70
2022-10-06T00:30:14.996Z,9.13
2022-10-06T00:33:17.826Z,9.55
2022-10-06T00:36:24.622Z,8.98
2022-10-06T00:39:27.045Z,8.15
2022-10-06T00:42:32.008Z,7.75
2022-10-06T00:45:34.113Z,8.57
2022-10-06T00:48:38.831Z,9.45
2022-10-06T00:51:46.077Z,8.38
2022-10-06T00:54:50.138Z,9.02
2022-10-06T00:57:53.057Z,8.63
2022-10-06T01:00:56.701Z,8.70
2022-10-06T01:07:04.479Z,9.10
2022-10-06T01:10:07.053Z,8.53
2022-10-06T01:13:13.347Z,8.93
2022-10-06T01:16:23.508Z,9.32
2022-10-06T01:19:54.043Z,8.50
2022-10-06T01:23:01.877Z,8.85
2022-10-06T01:26:09.111Z,7.62
2022-10-06T01:29:12.687Z,8.43
2022-10-06T01:32:15.317Z,7.78
2022-10-06T01:35:17.658Z,8.40
2022-10-06T01:38:21.980Z,8.55
2022-10-06T01:41:26.140Z,8.13
2022-10-06T01:44:29.181Z,9.10
2022-10-06T01:47:31.482Z,8.90
2022-10-06T01:50:34.636Z,9.00
2022-10-06T01:53:36.911Z,9.70
2022-10-06T01:56:39.995Z,10.27
2022-10-06T01:59:42.914Z,9.13
2022-10-06T02:02:45.721Z,9.43
2022-10-06T02:05:48.275Z,9.38
2022-10-06T02:08:50.572Z,9.82
2022-10-06T02:11:53.129Z,10.13
2022-10-06T02:14:55.313Z,10.20
2022-10-06T02:17:59.419Z,10.80
2022-10-06T02:21:03.801Z,9.98
2022-10-06T02:24:06.130Z,10.75
2022-10-06T02:27:08.786Z,10.10
2022-10-06T02:30:12.711Z,10.90
2022-10-06T02:33:15.216Z,9.90
2022-10-06T02:36:18.633Z,10.03
2022-10-06T02:39:21.418Z,9.80
2022-10-06T02:42:23.831Z,16.83
2022-10-06T02:45:26.627Z,11.77
2022-10-06T02:48:30.097Z,10.88
2022-10-06T02:51:33.156Z,10.88
2022-10-06T02:54:36.756Z,10.65
2022-10-06T02:57:39.738Z,10.50
2022-10-06T03:00:42.290Z,11.07
2022-10-06T03:03:46.758Z,10.25
2022-10-06T03:06:49.473Z,10.73
2022-10-06T03:09:52.300Z,11.35
2022-10-06T03:12:55.682Z,10.68
2022-10-06T03:15:58.607Z,11.25
2022-10-06T03:19:01.674Z,10.35
2022-10-06T03:22:06.074Z,11.02
2022-10-06T03:25:09.761Z,10.90
2022-10-06T03:28:12.379Z,10.90
2022-10-06T03:31:15.482Z,9.90
2022-10-06T03:34:18.182Z,10.35
2022-10-06T03:37:20.819Z,10.00
2022-10-06T03:40:23.560Z,10.75
2022-10-06T03:43:26.091Z,10.20
2022-10-06T03:46:30.932Z,10.25
2022-10-06T03:49:33.262Z,10.20
2022-10-06T03:52:36.104Z,10.07
2022-10-06T03:55:38.414Z,11.02
2022-10-06T03:58:43.806Z,10.20
2022-10-06T04:01:48.168Z,10.27
2022-10-06T04:04:51.200Z,10.27
2022-10-06T04:07:53.534Z,10.32
2022-10-06T04:11:04.126Z,9.93
2022-10-06T04:14:08.692Z,10.93
2022-10-06T04:17:11.617Z,10.55
2022-10-06T04:20:14.244Z,10.05
2022-10-06T04:23:16.949Z,10.02
2022-10-06T04:26:20.430Z,10.15
2022-10-06T04:32:27.080Z,9.52
2022-10-06T04:35:30.179Z,10.85
2022-10-06T04:38:36.868Z,9.82
2022-10-06T04:41:41.943Z,11.55
2022-10-06T04:44:45.010Z,10.73
2022-10-06T04:47:49.059Z,10.60
2022-10-06T04:51:12.682Z,10.77
2022-10-06T04:54:15.810Z,10.93
2022-10-06T04:57:18.283Z,10.88
2022-10-06T05:00:24.953Z,10.65
2022-10-06T05:03:30.680Z,10.95
2022-10-06T05:06:41.376Z,10.95
2022-10-06T05:09:44.040Z,11.32
2022-10-06T05:12:46.578Z,10.95
2022-10-06T05:15:59.318Z,10.90
2022-10-06T05:19:02.915Z,11.40
2022-10-06T05:22:05.224Z,10.55
2022-10-06T05:25:11.958Z,11.88
2022-10-06T05:28:14.494Z,10.80
2022-10-06T05:31:24.168Z,11.10
2022-10-06T05:34:26.800Z,11.80
2022-10-06T05:37:29.352Z,10.80
2022-10-06T05:40:32.344Z,11.65
2022-10-06T05:43:38.308Z,11.88
2022-10-06T05:46:40.815Z,12.02
2022-10-06T05:49:43.424Z,11.75
2022-10-06T05:52:45.959Z,11.68
2022-10-06T05:55:48.569Z,11.65
2022-10-06T05:58:53.084Z,11.95
2022-10-06T06:01:56.087Z,11.80
2022-10-06T06:04:59.994Z,12.13
2022-10-06T06:08:02.523Z,11.23
2022-10-06T06:11:07.620Z,12.25
2022-10-06T06:14:15.663Z,11.38
2022-10-06T06:17:18.340Z,12.10
2022-10-06T06:20:20.813Z,11.52
2022-10-06T06:23:23.521Z,12.70
2022-10-06T06:26:28.863Z,12.63
2022-10-06T06:29:31.433Z,11.63
2022-10-06T06:32:33.686Z,12.23
2022-10-06T06:35:37.320Z,12.07
2022-10-06T06:38:39.611Z,12.10
2022-10-06T06:41:47.516Z,12.32
2022-10-06T06:44:50.540Z,12.35
2022-10-06T06:47:53.335Z,12.43
2022-10-06T06:50:59.406Z,12.82
2022-10-06T06:54:03.324Z,12.77
2022-10-06T06:57:07.107Z,12.43
2022-10-06T07:00:10.297Z,12.73
2022-10-06T07:03:24.133Z,12.80
2022-10-06T07:06:39.561Z,12.98
2022-10-06T07:09:42.227Z,11.55
2022-10-06T07:12:46.237Z,12.60
2022-10-06T07:16:10.029Z,13.18
2022-10-06T07:19:33.101Z,12.27
2022-10-06T07:22:54.336Z,12.20
2022-10-06T07:25:58.129Z,12.15
2022-10-06T07:29:00.480Z,11.38
2022-10-06T07:32:03.634Z,11.88
2022-10-06T07:35:06.590Z,17.00
2022-10-06T07:38:09.702Z,11.93
2022-10-06T07:41:19.428Z,12.55
2022-10-06T07:44:23.236Z,14.65
2022-10-06T07:47:26.751Z,11.10
2022-10-06T07:50:29.539Z,10.87
2022-10-06T07:53:36.155Z,11.00
2022-10-06T07:56:39.609Z,10.50
2022-10-06T07:59:41.964Z,14.20
2022-10-06T08:02:44.554Z,11.70
2022-10-06T08:05:49.233Z,10.75
2022-10-06T08:08:53.221Z,10.52
2022-10-06T08:11:57.621Z,10.65
2022-10-06T08:15:07.589Z,10.40
2022-10-06T08:18:27.312Z,9.85
2022-10-06T08:21:34.529Z,9.50
2022-10-06T08:25:00.979Z,10.27
2022-10-06T08:27:59.518Z,10.68
2022-10-06T08:31:12.213Z,10.88
2022-10-06T08:34:14.642Z,11.33
2022-10-06T08:37:23.709Z,10.68
2022-10-06T08:40:27.582Z,10.13
2022-10-06T08:43:32.200Z,10.55
2022-10-06T08:46:44.161Z,10.20
2022-10-06T08:49:50.131Z,10.80
2022-10-06T08:53:04.872Z,10.52
2022-10-06T08:56:19.761Z,11.10
2022-10-06T08:59:22.307Z,11.27
2022-10-06T09:02:30.049Z,11.82
2022-10-06T09:05:34.928Z,11.38
2022-10-06T09:09:00.335Z,11.85
2022-10-06T09:12:32.094Z,11.38
2022-10-06T09:16:02.254Z,11.20
2022-10-06T09:19:33.570Z,12.07
2022-10-06T09:22:37.103Z,12.60
2022-10-06T09:25:39.636Z,11.88
2022-10-06T09:28:46.159Z,12.73
2022-10-06T09:31:50.526Z,13.90
2022-10-06T09:34:56.029Z,13.02
2022-10-06T09:38:07.843Z,13.20
2022-10-06T09:41:13.693Z,13.27
2022-10-06T09:44:29.213Z,14.32
2022-10-06T09:47:40.808Z,14.40
2022-10-06T09:50:43.024Z,14.63
2022-10-06T09:54:11.170Z,13.77
2022-10-06T09:57:21.474Z,13.40
2022-10-06T10:00:41.725Z,14.23
2022-10-06T10:04:18.737Z,13.00
2022-10-06T10:07:30.449Z,12.48
2022-10-06T10:10:35.433Z,11.23
2022-10-06T10:13:43.956Z,9.73
2022-10-06T10:16:52.356Z,10.23
2022-10-06T10:19:56.085Z,9.25
2022-10-06T10:26:15.310Z,9.50
2022-10-06T10:29:35.464Z,8.90
2022-10-06T10:33:05.101Z,8.80
2022-10-06T10:36:12.726Z,9.10
2022-10-06T10:39:27.349Z,7.80
2022-10-06T10:42:37.684Z,7.50
2022-10-06T10:46:16.938Z,7.78
2022-10-06T10:49:26.689Z,7.82
2022-10-06T10:52:35.919Z,7.05
2022-10-06T10:55:44.878Z,6.80
2022-10-06T10:58:52.748Z,7.05
2022-10-06T11:02:05.758Z,7.85
2022-10-06T11:05:43.088Z,8.00
2022-10-06T11:08:57.608Z,8.25
2022-10-06T11:12:27.061Z,7.20
2022-10-06T11:15:56.563Z,7.43
2022-10-06T11:19:20.575Z,7.78
2022-10-06T11:22:47.164Z,7.60
2022-10-06T11:26:15.660Z,7.22
2022-10-06T11:29:40.583Z,8.35
2022-10-06T11:33:01.375Z,7.55
2022-10-06T11:36:08.470Z,8.15
2022-10-06T11:39:16.631Z,8.70
2022-10-06T11:42:37.939Z,9.30
2022-10-06T11:45:48.984Z,8.05
2022-10-06T11:48:51.589Z,8.38
2022-10-06T11:51:59.118Z,7.68
2022-10-06T11:55:16.095Z,7.10
2022-10-06T12:01:43.939Z,7.62
2022-10-06T12:05:28.676Z,7.55
2022-10-06T12:08:40.179Z,7.47
2022-10-06T12:11:45.436Z,6.95
2022-10-06T12:18:40.603Z,8.48
2022-10-06T12:21:51.991Z,8.18
2022-10-06T12:25:03.550Z,7.45
2022-10-06T12:28:35.433Z,8.25
2022-10-06T12:31:47.492Z,8.27
2022-10-06T12:35:08.498Z,7.57
2022-10-06T12:38:35.407Z,6.95
2022-10-06T12:42:18.714Z,7.32
2022-10-06T12:45:22.520Z,6.80
2022-10-06T12:48:42.207Z,7.53
2022-10-06T12:51:48.605Z,7.00
2022-10-06T12:55:27.671Z,6.85
2022-10-06T12:58:32.552Z,6.65
2022-10-06T13:01:35.113Z,7.60
2022-10-06T13:04:43.069Z,8.00
2022-10-06T13:08:00.023Z,7.00
2022-10-06T13:11:24.888Z,6.95
2022-10-06T13:14:27.145Z,7.43
2022-10-06T13:17:29.710Z,6.82
2022-10-06T13:20:36.267Z,6.93
2022-10-06T13:23:40.495Z,6.82
2022-10-06T13:26:42.947Z,5.53
2022-10-06T13:29:45.560Z,5.57
2022-10-06T13:32:53.862Z,5.45
2022-10-06T13:36:00.506Z,5.22
2022-10-06T13:39:13.205Z,5.37
2022-10-06T13:42:20.370Z,5.60
2022-10-06T13:45:23.862Z,5.97
2022-10-06T13:48:27.487Z,5.55
2022-10-06T13:51:32.499Z,6.57
2022-10-06T13:54:55.751Z,5.80
2022-10-06T13:58:18.141Z,6.57
2022-10-06T14:01:29.642Z,6.50
2022-10-06T14:04:34.744Z,6.10
2022-10-06T14:07:44.000Z,5.90
2022-10-06T14:10:52.150Z,6.35
2022-10-06T14:13:56.269Z,6.15
2022-10-06T14:16:59.114Z,6.15
2022-10-06T14:20:01.833Z,5.87
2022-10-06T14:23:35.407Z,6.47
2022-10-06T14:26:37.678Z,6.57
2022-10-06T14:29:41.318Z,6.72
2022-10-06T14:32:43.562Z,6.10
2022-10-06T14:35:46.047Z,6.32
2022-10-06T14:38:50.478Z,5.97
2022-10-06T14:41:52.979Z,6.20
2022-10-06T14:44:55.263Z,5.72
2022-10-06T14:47:59.440Z,5.78
2022-10-06T14:51:03.560Z,5.22
2022-10-06T14:54:07.565Z,6.50
2022-10-06T14:57:09.850Z,5.85
2022-10-06T15:00:13.187Z,5.60
2022-10-06T15:03:15.632Z,5.75
2022-10-06T15:06:37.171Z,5.23
2022-10-06T15:09:39.439Z,5.35
2022-10-06T15:12:41.972Z,5.68
2022-10-06T15:15:44.268Z,5.85
2022-10-06T15:18:46.845Z,6.07
2022-10-06T15:21:49.098Z,5.20
2022-10-06T15:24:51.815Z,5.65
2022-10-06T15:28:12.643Z,7.90
2022-10-06T15:31:23.216Z,6.03
2022-10-06T15:34:27.921Z,5.65
2022-10-06T15:37:30.919Z,4.93
2022-10-06T15:40:33.154Z,4.22
2022-10-06T15:43:55.569Z,4.55
2022-10-06T15:46:58.402Z,4.35
2022-10-06T15:50:00.960Z,4.25
2022-10-06T15:53:03.512Z,4.18
2022-10-06T15:56:06.051Z,4.53
2022-10-06T15:59:08.318Z,4.28
2022-10-06T16:02:16.941Z,5.20
2022-10-06T16:05:39.737Z,5.15
2022-10-06T16:08:42.085Z,4.75
2022-10-06T16:11:45.243Z,4.40
2022-10-06T16:14:47.682Z,5.30
2022-10-06T16:17:50.148Z,6.65
2022-10-06T16:20:54.286Z,5.85
2022-10-06T16:23:57.977Z,6.55
2022-10-06T16:27:00.479Z,6.30
2022-10-06T16:30:03.516Z,5.40
2022-10-06T16:33:05.730Z,5.22
2022-10-06T16:36:09.797Z,5.55
2022-10-06T16:39:20.491Z,5.80
2022-10-06T16:42:24.217Z,4.57
2022-10-06T16:45:26.510Z,5.10
2022-10-06T16:48:34.595Z,5.22
2022-10-06T16:51:39.249Z,5.43
2022-10-06T16:54:41.753Z,5.87
2022-10-06T16:57:43.951Z,4.80
2022-10-06T17:00:56.283Z,5.85
2022-10-06T17:04:01.335Z,5.37
2022-10-06T17:07:04.431Z,5.85
2022-10-06T17:10:20.284Z,5.33
2022-10-06T17:13:23.691Z,7.28
2022-10-06T17:16:29.307Z,5.93
2022-10-06T17:19:32.084Z,5.57
2022-10-06T17:22:34.338Z,5.57
2022-10-06T17:25:36.977Z,5.80
2022-10-06T17:28:41.035Z,5.22
2022-10-06T17:31:43.954Z,6.60
2022-10-06T17:34:48.514Z,7.28
2022-10-06T17:37:51.029Z,8.00
2022-10-06T17:40:54.269Z,6.68
2022-10-06T17:44:03.213Z,6.15
2022-10-06T17:47:05.437Z,6.03
2022-10-06T17:50:08.230Z,5.78
2022-10-06T17:53:10.457Z,5.82
2022-10-06T17:56:15.486Z,7.30
2022-10-06T17:59:23.471Z,7.28
2022-10-06T18:02:25.993Z,7.37
2022-10-06T18:05:32.795Z,7.30
2022-10-06T18:08:35.464Z,7.90
2022-10-06T18:11:39.799Z,7.97
2022-10-06T18:14:43.370Z,10.75
2022-10-06T18:20:48.303Z,8.32
2022-10-06T18:23:51.099Z,8.60
2022-10-06T18:26:55.392Z,7.55
2022-10-06T18:29:57.977Z,7.72
2022-10-06T18:36:24.081Z,7.68
2022-10-06T18:39:26.805Z,7.95
2022-10-06T18:42:29.643Z,7.73
2022-10-06T18:45:50.261Z,7.60
2022-10-06T18:48:56.900Z,7.85
2022-10-06T18:51:59.166Z,7.70
2022-10-06T18:55:02.491Z,8.30
2022-10-06T18:58:05.248Z,8.70
2022-10-06T19:01:09.551Z,8.45
2022-10-06T19:04:15.169Z,8.10
2022-10-06T19:07:17.704Z,7.75
2022-10-06T19:10:20.021Z,8.18
2022-10-06T19:13:22.562Z,9.45
2022-10-06T19:16:25.387Z,10.18
2022-10-06T19:19:29.898Z,10.50
2022-10-06T19:22:33.619Z,10.27
2022-10-06T19:25:36.119Z,10.45
2022-10-06T19:28:39.428Z,10.13
2022-10-06T19:31:45.107Z,10.60
2022-10-06T19:34:48.417Z,10.25
2022-10-06T19:37:51.706Z,10.77
2022-10-06T19:40:53.898Z,10.80
2022-10-06T19:43:58.114Z,10.90
2022-10-06T19:50:08.762Z,9.50
2022-10-06T19:53:12.964Z,11.60
2022-10-06T19:56:17.617Z,11.95
2022-10-06T19:59:23.907Z,11.07
2022-10-06T20:02:27.229Z,10.10
2022-10-06T20:05:30.055Z,9.68
2022-10-06T20:08:32.308Z,10.63
2022-10-06T20:11:36.911Z,10.65
2022-10-06T20:14:39.104Z,10.40
2022-10-06T20:17:42.688Z,9.75
2022-10-06T20:20:56.023Z,9.90
2022-10-06T20:24:01.468Z,9.68
2022-10-06T20:27:03.674Z,9.23
2022-10-06T20:30:06.861Z,9.98
2022-10-06T20:33:11.304Z,9.98
2022-10-06T20:36:14.790Z,9.45
2022-10-06T20:39:38.824Z,10.13
2022-10-06T20:42:44.769Z,9.05
2022-10-06T20:45:47.079Z,8.82
2022-10-06T20:48:50.440Z,8.77
2022-10-06T20:51:52.748Z,8.57
2022-10-06T20:54:55.288Z,9.13
2022-10-06T20:57:57.462Z,9.48
2022-10-06T21:01:05.932Z,10.32
2022-10-06T21:04:09.295Z,10.48
2022-10-06T21:07:12.179Z,9.35
2022-10-06T21:10:14.456Z,10.10
2022-10-06T21:13:17.095Z,10.43
2022-10-06T21:16:21.119Z,11.43
2022-10-06T21:19:25.096Z,11.48
2022-10-06T21:22:31.428Z,11.32
2022-10-06T21:25:37.356Z,12.02
2022-10-06T21:28:40.087Z,13.98
2022-10-06T21:31:44.141Z,12.50
2022-10-06T21:34:46.438Z,12.52
2022-10-06T21:37:49.102Z,11.85
2022-10-06T21:40:51.301Z,13.05
2022-10-06T21:43:55.031Z,13.15
2022-10-06T21:46:57.371Z,12.02
2022-10-06T21:50:00.113Z,12.40
2022-10-06T21:53:02.318Z,11.82
2022-10-06T21:56:04.800Z,11.98
2022-10-06T21:59:07.807Z,11.02
2022-10-06T22:02:10.378Z,12.75
2022-10-06T22:05:12.915Z,12.43
2022-10-06T22:08:15.131Z,11.98
2022-10-06T22:11:23.326Z,11.88
2022-10-06T22:14:25.580Z,12.55
2022-10-06T22:17:28.154Z,11.30
2022-10-06T22:20:31.953Z,11.38
2022-10-06T22:23:34.654Z,12.07
2022-10-06T22:26:38.768Z,11.02
2022-10-06T22:29:42.407Z,10.88
2022-10-06T22:32:44.634Z,10.77
2022-10-06T22:35:51.455Z,11.27
2022-10-06T22:38:53.838Z,10.80
2022-10-06T22:41:56.309Z,10.85
2022-10-06T22:44:58.518Z,10.15
2022-10-06T22:48:01.031Z,10.80
2022-10-06T22:51:03.961Z,10.05
2022-10-06T22:54:06.428Z,10.27
2022-10-06T22:57:10.704Z,11.25
2022-10-06T23:00:13.729Z,10.25
2022-10-06T23:03:17.596Z,10.80
2022-10-06T23:06:22.603Z,11.07
2022-10-06T23:09:24.944Z,11.10
2022-10-06T23:12:30.225Z,10.48
2022-10-06T23:15:32.491Z,10.32
2022-10-06T23:18:37.266Z,10.52
2022-10-06T23:21:40.322Z,10.32
2022-10-06T23:24:42.832Z,10.52
2022-10-06T23:27:45.404Z,10.57
2022-10-06T23:30:48.225Z,9.95
2022-10-06T23:33:50.585Z,10.38
2022-10-06T23:36:53.086Z,10.70
2022-10-06T23:39:55.279Z,10.27
2022-10-06T23:42:59.051Z,9.65
2022-10-06T23:46:02.105Z,9.73
2022-10-06T23:49:04.863Z,10.20
2022-10-06T23:52:07.124Z,10.27
2022-10-06T23:55:11.794Z,9.95
2022-10-06T23:58:14.769Z,9.80
